Aérodrome :
LOGIN :

S'inscrire | Disclaimer

   EN    FR    IT 

 










Légende :    VFR   VFR Marginal   IFR   IFR Intensif   IFR Très Intensif
Visi : 
Plafond : 
>= 8 km
>= 3000ft
5 à 8 km
1000 à 3000 ft
1500m à 5 km
500 à 1000 ft
800 à 1500m
200 à 500 ft
< 800m
< 200 ft
Symboles :   Orages  Brouillard  Fortes neiges  Fortes précipitations  Vent > 20 kt
SIGMETs :   Divers  Orages  Givrage  Turbulence  Onde Orograph.  Cendres Volcan.







- Altitude de l'aérodrome : 755 ft
- Code IATA : DRS


EDDC - Dresden Klotzsche

DERNIER METAR :
  • 290650Z 32006KT 280V360 3200 -RA BR BKN002 17/17 Q0993 TEMPO 5000 SHRA SCT002 BKN020

METARs EXPIRÉS :
  • 290620Z 30004KT 270V330 3500 -RA BR BKN002 BKN085 17/17 Q0993 TEMPO 5000 SHRA SCT002 BKN020
  • 290550Z 30005KT 3500 BR BKN002 BKN100 17/17 Q0993 BECMG 5000 BR SCT003 BKN006
  • 290520Z 30005KT 250V320 2600 BR BKN001 BKN006 17/16 Q0993 BECMG 3000 BR SCT003 BKN006
  • 290450Z 31004KT 280V340 2400 BCFG BR OVC001 17/17 Q0993 BECMG 3000 BR SCT001 BKN003
  • 290420Z VRB01KT 1600 R22/0750D BCFG BR OVC001 17/16 Q0994 BECMG 3000 BR SCT001 BKN003

TAF TAF EDDC
Valide du 29 à 06h jusqu'au 30 à 06h UTC


290500Z 2906/3006 30004KT 3000 BR OVC001
BECMG 2906/2909 32010KT 5000 SCT004 BKN006
TEMPO 2907/2918 4000 SHRA BKN012 BKN015CB
PROB30
TEMPO 2907/2918 33020G30KT 2500 TSRA BKN006 BKN015CB
BECMG 2910/2912 26015G25KT
BECMG 2920/2923 26010KT BKN020
Pas de NOTAMs connus pour ce terrain.
1 SIGMET publié pour la FIR München (EDMM) :
 
Orages obscurcis
EDMM SIGMET 3 VALID 290647/290747 EDZM
EDMM MUNCHEN FIR OBSC TS OBS N OF N5045 AND E OF E01345 TOP FL300 MOV N NC=



MET'MAP, la Météo Aéronautique d'un coup d'oeil ! - Copyright ORBIFLY Décembre 2007 - Disclaimer

ORBIFLY MET'MAP TEAM :

Programmation & Développement : Alexandra Zaïnal
Conception & Développement : Baudouin d'Aumeries
Co-Programmation & Développement : Marc-Olivier Méhu
Soutien technique & logistique : Manuel Goepfert

Contact : metmap@orbifly.com




SOURCES & CREDITS :

   NOAA